createdAt,value
2022-10-25T00:01:50.974Z,84.61
2022-10-25T00:06:48.729Z,85.43
2022-10-25T00:09:15.844Z,85.06
2022-10-25T00:11:43.396Z,84.97
2022-10-25T00:14:09.977Z,85.77
2022-10-25T00:16:38.181Z,86.25
2022-10-25T00:19:05.498Z,87.43
2022-10-25T00:21:32.073Z,87.97
2022-10-25T00:23:58.575Z,88.79
2022-10-25T00:26:25.085Z,88.77
2022-10-25T00:28:54.897Z,88.76
2022-10-25T00:31:23.097Z,88.44
2022-10-25T00:33:51.773Z,88.96
2022-10-25T00:36:24.172Z,88.50
2022-10-25T00:38:56.621Z,88.20
2022-10-25T00:41:27.797Z,88.49
2022-10-25T00:43:57.081Z,87.87
2022-10-25T00:46:29.070Z,86.56
2022-10-25T00:49:04.005Z,86.41
2022-10-25T00:51:39.018Z,85.86
2022-10-25T00:54:10.407Z,85.81
2022-10-25T00:56:40.603Z,86.27
2022-10-25T00:59:10.609Z,86.44
2022-10-25T01:01:38.763Z,86.38
2022-10-25T01:04:11.781Z,86.42
2022-10-25T01:06:46.603Z,86.41
2022-10-25T01:09:17.337Z,85.37
2022-10-25T01:11:44.044Z,83.44
2022-10-25T01:14:13.274Z,85.07
2022-10-25T01:16:55.859Z,86.95
2022-10-25T01:20:00.169Z,90.42
2022-10-25T01:22:40.181Z,92.30
2022-10-25T01:25:44.349Z,92.97
2022-10-25T01:28:16.907Z,92.84
2022-10-25T01:30:55.637Z,91.55
2022-10-25T01:33:31.956Z,90.79
2022-10-25T01:36:06.609Z,90.46
2022-10-25T01:38:39.147Z,89.87
2022-10-25T01:41:30.420Z,89.65
2022-10-25T01:47:17.489Z,90.90
2022-10-25T01:50:00.749Z,89.47
2022-10-25T01:52:27.655Z,90.41
2022-10-25T01:54:57.184Z,88.88
2022-10-25T01:57:38.663Z,88.78
2022-10-25T02:00:10.456Z,87.36
2022-10-25T02:02:51.581Z,86.15
2022-10-25T02:05:33.152Z,86.83
2022-10-25T02:08:06.467Z,87.45
2022-10-25T02:10:41.921Z,87.45
2022-10-25T02:13:43.689Z,87.02
2022-10-25T02:16:19.371Z,86.99
2022-10-25T02:18:51.382Z,86.49
2022-10-25T02:21:19.476Z,86.26
2022-10-25T02:23:49.111Z,86.33
2022-10-25T02:26:17.533Z,84.49
2022-10-25T02:28:46.002Z,85.21
2022-10-25T02:31:16.841Z,86.32
2022-10-25T02:33:45.611Z,86.13
2022-10-25T02:36:23.727Z,87.22
2022-10-25T02:38:52.739Z,88.72
2022-10-25T02:41:21.303Z,88.47
2022-10-25T02:43:48.288Z,90.64
2022-10-25T02:46:18.363Z,90.29
2022-10-25T02:48:45.288Z,89.11
2022-10-25T02:51:12.878Z,88.60
2022-10-25T02:53:40.001Z,89.48
2022-10-25T02:56:08.105Z,89.22
2022-10-25T02:58:38.221Z,88.67
2022-10-25T03:01:06.383Z,90.48
2022-10-25T03:03:33.906Z,90.45
2022-10-25T03:06:00.906Z,91.61
2022-10-25T03:08:29.881Z,90.00
2022-10-25T03:10:56.424Z,90.87
2022-10-25T03:13:23.406Z,91.86
2022-10-25T03:15:50.077Z,93.37
2022-10-25T03:18:17.554Z,92.73
2022-10-25T03:20:44.865Z,93.56
2022-10-25T03:23:11.857Z,95.45
2022-10-25T03:25:38.459Z,97.66
2022-10-25T03:28:05.078Z,98.56
2022-10-25T03:30:32.058Z,100.00
2022-10-25T03:33:00.927Z,100.00
2022-10-25T03:35:27.512Z,100.00
2022-10-25T03:37:54.926Z,99.73
2022-10-25T03:40:21.818Z,98.92
2022-10-25T03:42:48.453Z,100.00
2022-10-25T03:45:14.967Z,99.86
2022-10-25T03:47:41.489Z,100.00
2022-10-25T03:50:08.281Z,100.00
2022-10-25T03:52:35.364Z,100.00
2022-10-25T03:55:05.264Z,100.00
2022-10-25T03:57:34.943Z,100.00
2022-10-25T04:00:04.922Z,100.00
2022-10-25T04:02:32.750Z,100.00
2022-10-25T04:04:59.260Z,100.00
2022-10-25T04:07:25.808Z,100.00
2022-10-25T04:09:52.326Z,100.00
2022-10-25T04:12:18.828Z,100.00
2022-10-25T04:14:45.346Z,100.00
2022-10-25T04:17:11.880Z,100.00
2022-10-25T04:19:38.422Z,100.00
2022-10-25T04:22:05.278Z,100.00
2022-10-25T04:24:33.096Z,99.72
2022-10-25T04:26:59.649Z,100.00
2022-10-25T04:29:26.174Z,100.00
2022-10-25T04:31:52.750Z,100.00
2022-10-25T04:34:19.295Z,100.00
2022-10-25T04:36:45.834Z,100.00
2022-10-25T04:39:12.397Z,100.00
2022-10-25T04:41:38.955Z,100.00
2022-10-25T04:44:07.993Z,100.00
2022-10-25T04:46:37.452Z,99.08
2022-10-25T04:49:04.979Z,98.62
2022-10-25T04:51:31.502Z,100.00
2022-10-25T04:53:57.994Z,100.00
2022-10-25T04:56:24.588Z,100.00
2022-10-25T04:58:51.131Z,100.00
2022-10-25T05:01:18.686Z,100.00
2022-10-25T05:03:45.505Z,100.00
2022-10-25T05:06:18.039Z,100.00
2022-10-25T05:08:47.131Z,98.46
2022-10-25T05:11:15.322Z,97.46
2022-10-25T05:13:45.388Z,96.17
2022-10-25T05:16:20.506Z,97.13
2022-10-25T05:18:47.465Z,97.34
2022-10-25T05:21:15.448Z,97.95
2022-10-25T05:23:42.640Z,98.31
2022-10-25T05:26:11.926Z,99.85
2022-10-25T05:28:40.576Z,100.00
2022-10-25T05:31:14.491Z,100.00
2022-10-25T05:33:42.093Z,100.00
2022-10-25T05:36:08.648Z,100.00
2022-10-25T05:38:37.836Z,100.00
2022-10-25T05:41:05.670Z,100.00
2022-10-25T05:43:32.273Z,100.00
2022-10-25T05:46:11.376Z,100.00
2022-10-25T05:48:38.885Z,100.00
2022-10-25T05:51:32.519Z,100.00
2022-10-25T05:54:10.599Z,100.00
2022-10-25T05:56:38.123Z,100.00
2022-10-25T05:59:12.778Z,100.00
2022-10-25T06:01:41.924Z,100.00
2022-10-25T06:04:09.473Z,100.00
2022-10-25T06:06:37.814Z,100.00
2022-10-25T06:09:07.929Z,100.00
2022-10-25T06:11:36.598Z,100.00
2022-10-25T06:14:03.437Z,100.00
2022-10-25T06:16:30.008Z,100.00
2022-10-25T06:18:56.893Z,100.00
2022-10-25T06:21:26.728Z,100.00
2022-10-25T06:23:54.117Z,100.00
2022-10-25T06:26:25.395Z,100.00
2022-10-25T06:28:53.462Z,100.00
2022-10-25T06:31:20.642Z,100.00
2022-10-25T06:33:47.632Z,100.00
2022-10-25T06:36:19.637Z,100.00
2022-10-25T06:38:47.322Z,100.00
2022-10-25T06:41:19.502Z,100.00
2022-10-25T06:43:46.384Z,100.00
2022-10-25T06:46:24.593Z,100.00
2022-10-25T06:48:53.754Z,100.00
2022-10-25T06:51:21.680Z,100.00
2022-10-25T06:53:53.872Z,100.00
2022-10-25T06:56:20.724Z,100.00
2022-10-25T06:58:47.310Z,100.00
2022-10-25T07:01:18.676Z,100.00
2022-10-25T07:03:46.299Z,100.00
2022-10-25T07:06:27.575Z,100.00
2022-10-25T07:08:57.103Z,100.00
2022-10-25T07:11:25.358Z,100.00
2022-10-25T07:13:52.506Z,100.00
2022-10-25T07:16:21.030Z,95.07
2022-10-25T07:18:48.902Z,87.80
2022-10-25T07:21:21.675Z,82.43
2022-10-25T07:23:50.310Z,80.90
2022-10-25T07:26:20.065Z,74.22
2022-10-25T07:28:48.192Z,70.03
2022-10-25T07:31:17.281Z,67.22
2022-10-25T07:33:43.876Z,67.65
2022-10-25T07:36:11.598Z,67.89
2022-10-25T07:38:39.240Z,67.25
2022-10-25T07:41:05.803Z,65.53
2022-10-25T07:43:32.370Z,64.91
2022-10-25T07:45:58.965Z,64.50
2022-10-25T07:48:25.517Z,64.43
2022-10-25T07:50:52.051Z,63.18
2022-10-25T07:53:18.967Z,62.84
2022-10-25T07:55:53.003Z,61.25
2022-10-25T07:58:19.910Z,62.49
2022-10-25T08:00:47.162Z,61.34
2022-10-25T08:03:15.376Z,63.83
2022-10-25T08:05:44.517Z,62.14
2022-10-25T08:08:11.718Z,61.24
2022-10-25T08:10:38.526Z,63.07
2022-10-25T08:13:08.063Z,65.01
2022-10-25T08:15:37.885Z,64.06
2022-10-25T08:18:09.750Z,63.68
2022-10-25T08:21:00.650Z,65.95
2022-10-25T08:23:25.340Z,66.94
2022-10-25T08:25:51.966Z,66.72
2022-10-25T08:28:18.549Z,65.91
2022-10-25T08:30:45.066Z,65.32
2022-10-25T08:33:12.113Z,62.68
2022-10-25T08:35:39.100Z,61.53
2022-10-25T08:38:08.363Z,62.38
2022-10-25T08:40:43.541Z,62.19
2022-10-25T08:43:28.311Z,61.52
2022-10-25T08:46:00.252Z,62.65
2022-10-25T08:48:32.958Z,63.47
2022-10-25T08:51:25.898Z,60.87
2022-10-25T08:53:57.009Z,60.20
2022-10-25T08:56:25.840Z,62.04
2022-10-25T08:58:58.276Z,62.55
2022-10-25T09:01:51.780Z,58.59
2022-10-25T09:04:18.563Z,56.26
2022-10-25T09:06:53.843Z,55.97
2022-10-25T09:09:55.329Z,54.96
2022-10-25T09:12:30.309Z,55.21
2022-10-25T09:15:11.520Z,54.09
2022-10-25T09:17:51.480Z,52.68
2022-10-25T09:20:23.822Z,52.05
2022-10-25T09:23:16.495Z,53.96
2022-10-25T09:26:06.151Z,52.53
2022-10-25T09:29:17.887Z,51.31
2022-10-25T09:31:50.078Z,49.31
2022-10-25T09:34:21.598Z,48.22
2022-10-25T09:37:19.688Z,50.26
2022-10-25T09:39:51.700Z,46.09
2022-10-25T09:42:33.039Z,47.97
2022-10-25T09:45:17.336Z,48.24
2022-10-25T09:47:52.402Z,45.65
2022-10-25T09:50:29.889Z,47.32
2022-10-25T09:53:14.918Z,49.82
2022-10-25T09:55:49.634Z,49.33
2022-10-25T09:58:40.545Z,48.80
2022-10-25T10:01:17.599Z,49.72
2022-10-25T10:03:47.068Z,49.01
2022-10-25T10:06:26.403Z,50.19
2022-10-25T10:09:12.706Z,51.11
2022-10-25T10:11:40.379Z,49.76
2022-10-25T10:14:50.252Z,50.79
2022-10-25T10:17:19.915Z,50.43
2022-10-25T10:20:12.076Z,51.25
2022-10-25T10:22:46.260Z,48.93
2022-10-25T10:25:22.625Z,49.71
2022-10-25T10:27:52.326Z,49.05
2022-10-25T10:30:24.016Z,47.25
2022-10-25T10:32:57.370Z,45.10
2022-10-25T10:35:36.161Z,45.57
2022-10-25T10:38:28.338Z,45.52
2022-10-25T10:41:14.827Z,46.42
2022-10-25T10:43:41.851Z,43.59
2022-10-25T10:46:15.116Z,45.61
2022-10-25T10:48:44.497Z,44.26
2022-10-25T10:51:39.023Z,44.30
2022-10-25T10:54:23.599Z,45.28
2022-10-25T10:57:00.859Z,45.42
2022-10-25T10:59:52.274Z,46.65
2022-10-25T11:02:40.131Z,46.26
2022-10-25T11:05:22.115Z,47.43
2022-10-25T11:08:16.158Z,47.20
2022-10-25T11:10:42.824Z,46.83
2022-10-25T11:13:11.307Z,46.83
2022-10-25T11:16:01.052Z,48.09
2022-10-25T11:18:42.357Z,48.99
2022-10-25T11:21:21.904Z,48.26
2022-10-25T11:24:00.790Z,49.29
2022-10-25T11:26:54.851Z,48.79
2022-10-25T11:29:40.154Z,47.96
2022-10-25T11:32:33.657Z,48.78
2022-10-25T11:35:18.214Z,47.78
2022-10-25T11:38:05.006Z,49.69
2022-10-25T11:40:54.671Z,50.28
2022-10-25T11:43:23.997Z,50.75
2022-10-25T11:45:59.309Z,50.16
2022-10-25T11:48:42.696Z,50.42
2022-10-25T11:51:19.202Z,49.44
2022-10-25T11:54:20.957Z,46.91
2022-10-25T11:57:12.899Z,45.81
2022-10-25T12:00:02.817Z,44.84
2022-10-25T12:03:06.745Z,44.15
2022-10-25T12:05:52.712Z,47.03
2022-10-25T12:09:01.837Z,46.07
2022-10-25T12:11:32.609Z,47.49
2022-10-25T12:14:07.372Z,46.48
2022-10-25T12:16:37.324Z,45.31
2022-10-25T12:19:16.730Z,44.35
2022-10-25T12:22:06.433Z,41.23
2022-10-25T12:24:41.791Z,44.45
2022-10-25T12:27:13.428Z,45.42
2022-10-25T12:30:05.622Z,44.62
2022-10-25T12:33:14.416Z,46.49
2022-10-25T12:35:51.073Z,47.84
2022-10-25T12:38:35.826Z,46.80
2022-10-25T12:41:14.224Z,45.89
2022-10-25T12:44:00.025Z,46.08
2022-10-25T12:46:54.610Z,48.17
2022-10-25T12:49:44.357Z,47.76
2022-10-25T12:52:28.352Z,48.65
2022-10-25T12:55:36.623Z,47.77
2022-10-25T12:58:46.519Z,49.38
2022-10-25T13:01:13.085Z,50.97
2022-10-25T13:04:04.222Z,51.90
2022-10-25T13:06:41.253Z,51.39
2022-10-25T13:09:11.656Z,50.03
2022-10-25T13:11:47.708Z,49.23
2022-10-25T13:14:20.800Z,47.39
2022-10-25T13:16:47.356Z,45.35
2022-10-25T13:19:18.716Z,44.03
2022-10-25T13:21:54.254Z,43.82
2022-10-25T13:24:43.281Z,42.62
2022-10-25T13:27:13.581Z,42.26
2022-10-25T13:29:58.982Z,41.93
2022-10-25T13:32:25.855Z,42.37
2022-10-25T13:34:52.536Z,44.06
2022-10-25T13:37:43.802Z,43.99
2022-10-25T13:40:28.227Z,43.66
2022-10-25T13:43:18.745Z,41.86
2022-10-25T13:45:55.204Z,43.10
2022-10-25T13:48:34.895Z,43.65
2022-10-25T13:51:13.217Z,43.01
2022-10-25T13:53:49.307Z,45.58
2022-10-25T13:56:32.142Z,46.31
2022-10-25T13:59:02.415Z,44.24
2022-10-25T14:01:31.276Z,45.81
2022-10-25T14:04:36.243Z,43.76
2022-10-25T14:07:44.395Z,44.54
2022-10-25T14:10:23.157Z,45.77
2022-10-25T14:12:53.551Z,46.24
2022-10-25T14:15:46.150Z,48.69
2022-10-25T14:18:21.979Z,48.72
2022-10-25T14:20:56.287Z,48.82
2022-10-25T14:23:27.459Z,49.71
2022-10-25T14:25:58.978Z,51.12
2022-10-25T14:28:28.629Z,52.63
2022-10-25T14:30:56.854Z,54.08
2022-10-25T14:33:41.862Z,53.98
2022-10-25T14:36:36.005Z,56.34
2022-10-25T14:39:15.176Z,60.31
2022-10-25T14:41:59.175Z,61.38
2022-10-25T14:44:47.221Z,61.50
2022-10-25T14:47:31.134Z,55.37
2022-10-25T14:49:59.184Z,54.95
2022-10-25T14:52:27.589Z,53.83
2022-10-25T14:55:02.744Z,53.63
2022-10-25T14:57:30.559Z,50.52
2022-10-25T15:00:01.816Z,49.14
2022-10-25T15:02:41.389Z,46.75
2022-10-25T15:05:18.704Z,47.81
2022-10-25T15:07:47.168Z,48.74
2022-10-25T15:10:40.175Z,49.22
2022-10-25T15:13:28.618Z,48.02
2022-10-25T15:15:56.471Z,47.46
2022-10-25T15:18:34.625Z,48.79
2022-10-25T15:21:21.519Z,48.38
2022-10-25T15:24:12.422Z,48.62
2022-10-25T15:26:41.330Z,47.29
2022-10-25T15:29:07.908Z,47.90
2022-10-25T15:31:34.466Z,46.81
2022-10-25T15:34:05.631Z,49.34
2022-10-25T15:36:33.805Z,48.29
2022-10-25T15:39:10.375Z,50.43
2022-10-25T15:41:40.418Z,52.88
2022-10-25T15:44:07.328Z,52.76
2022-10-25T15:46:34.992Z,54.77
2022-10-25T15:49:04.901Z,57.34
2022-10-25T15:51:34.271Z,56.18
2022-10-25T15:54:00.813Z,57.27
2022-10-25T15:56:27.401Z,55.08
2022-10-25T15:58:53.912Z,51.17
2022-10-25T16:01:21.516Z,51.52
2022-10-25T16:03:48.195Z,51.54
2022-10-25T16:06:15.097Z,52.07
2022-10-25T16:08:42.320Z,51.61
2022-10-25T16:11:15.642Z,51.81
2022-10-25T16:13:44.710Z,50.62
2022-10-25T16:16:39.408Z,51.80
2022-10-25T16:19:15.164Z,51.03
2022-10-25T16:21:44.583Z,51.27
2022-10-25T16:24:14.202Z,51.71
2022-10-25T16:26:47.273Z,51.08
2022-10-25T16:29:24.976Z,51.46
2022-10-25T16:31:52.744Z,52.06
2022-10-25T16:34:19.918Z,51.43
2022-10-25T16:36:48.132Z,52.31
2022-10-25T16:39:15.130Z,52.65
2022-10-25T16:41:46.198Z,53.58
2022-10-25T16:44:15.567Z,54.24
2022-10-25T16:46:42.158Z,53.01
2022-10-25T16:49:11.297Z,52.92
2022-10-25T16:51:42.135Z,53.32
2022-10-25T16:54:15.591Z,53.54
2022-10-25T16:56:42.495Z,54.17
2022-10-25T16:59:10.921Z,53.95
2022-10-25T17:01:38.960Z,54.05
2022-10-25T17:04:07.887Z,53.67
2022-10-25T17:06:42.585Z,53.57
2022-10-25T17:09:11.729Z,54.57
2022-10-25T17:11:40.596Z,55.42
2022-10-25T17:14:10.645Z,57.59
2022-10-25T17:16:46.283Z,57.30
2022-10-25T17:19:13.074Z,57.27
2022-10-25T17:21:41.760Z,57.91
2022-10-25T17:24:12.126Z,58.97
2022-10-25T17:26:40.324Z,58.95
2022-10-25T17:29:06.871Z,59.38
2022-10-25T17:31:33.486Z,59.09
2022-10-25T17:34:01.181Z,58.94
2022-10-25T17:36:29.233Z,58.02
2022-10-25T17:38:55.739Z,55.49
2022-10-25T17:41:22.220Z,55.21
2022-10-25T17:43:50.930Z,55.60
2022-10-25T17:46:23.779Z,55.31
2022-10-25T17:48:54.823Z,54.22
2022-10-25T17:51:21.616Z,53.67
2022-10-25T17:53:56.535Z,53.09
2022-10-25T17:56:25.608Z,52.07
2022-10-25T17:58:52.738Z,51.90
2022-10-25T18:01:22.440Z,52.17
2022-10-25T18:03:50.002Z,52.15
2022-10-25T18:06:19.199Z,52.17
2022-10-25T18:08:51.093Z,52.26
2022-10-25T18:11:19.484Z,54.79
2022-10-25T18:13:46.382Z,52.33
2022-10-25T18:16:17.225Z,51.61
2022-10-25T18:18:46.790Z,50.97
2022-10-25T18:21:15.679Z,50.94
2022-10-25T18:23:45.888Z,50.33
2022-10-25T18:26:17.338Z,50.59
2022-10-25T18:28:47.051Z,50.74
2022-10-25T18:31:16.415Z,50.42
2022-10-25T18:33:50.110Z,50.30
2022-10-25T18:36:19.435Z,49.88
2022-10-25T18:38:47.187Z,49.49
2022-10-25T18:41:28.548Z,49.16
2022-10-25T18:43:56.440Z,48.78
2022-10-25T18:46:23.982Z,49.48
2022-10-25T18:48:52.383Z,48.94
2022-10-25T18:51:20.555Z,48.64
2022-10-25T18:53:47.213Z,49.17
2022-10-25T18:56:19.654Z,49.36
2022-10-25T18:58:48.642Z,48.98
2022-10-25T19:01:24.493Z,49.09
2022-10-25T19:03:51.682Z,49.23
2022-10-25T19:06:21.191Z,49.42
2022-10-25T19:08:49.299Z,49.63
2022-10-25T19:11:18.482Z,49.46
2022-10-25T19:13:51.420Z,49.74
2022-10-25T19:16:18.242Z,50.10
2022-10-25T19:18:45.075Z,49.99
2022-10-25T19:21:18.668Z,50.17
2022-10-25T19:23:46.463Z,49.87
2022-10-25T19:26:21.306Z,50.56
2022-10-25T19:28:54.438Z,50.59
2022-10-25T19:31:20.990Z,51.38
2022-10-25T19:33:49.422Z,51.46
2022-10-25T19:36:20.471Z,52.10
2022-10-25T19:38:50.162Z,52.24
2022-10-25T19:41:19.469Z,52.61
2022-10-25T19:43:46.864Z,53.03
2022-10-25T19:46:16.529Z,52.83
2022-10-25T19:48:46.179Z,53.09
2022-10-25T19:51:15.616Z,53.29
2022-10-25T19:53:44.648Z,53.26
2022-10-25T19:56:20.738Z,53.77
2022-10-25T19:58:48.288Z,53.62
2022-10-25T20:01:23.975Z,53.93
2022-10-25T20:03:52.716Z,54.53
2022-10-25T20:06:24.665Z,54.13
2022-10-25T20:08:52.935Z,54.50
2022-10-25T20:11:20.219Z,54.94
2022-10-25T20:13:46.852Z,54.25
2022-10-25T20:16:16.279Z,54.64
2022-10-25T20:18:45.232Z,57.56
2022-10-25T20:21:19.188Z,61.70
2022-10-25T20:23:50.811Z,64.30
2022-10-25T20:26:19.791Z,64.17
2022-10-25T20:28:47.142Z,64.77
2022-10-25T20:31:19.808Z,65.89
2022-10-25T20:33:49.976Z,66.60
2022-10-25T20:36:19.605Z,67.23
2022-10-25T20:38:49.292Z,67.88
2022-10-25T20:41:25.296Z,67.73
2022-10-25T20:43:54.501Z,68.06
2022-10-25T20:46:22.620Z,67.67
2022-10-25T20:48:49.452Z,66.22
2022-10-25T20:51:19.423Z,65.47
2022-10-25T20:53:49.604Z,65.61
2022-10-25T20:56:21.152Z,63.50
2022-10-25T20:58:48.114Z,62.93
2022-10-25T21:01:17.467Z,62.57
2022-10-25T21:03:44.255Z,62.57
2022-10-25T21:06:12.341Z,63.81
2022-10-25T21:08:39.401Z,63.53
2022-10-25T21:11:09.361Z,64.02
2022-10-25T21:13:37.146Z,61.94
2022-10-25T21:16:07.245Z,63.28
2022-10-25T21:18:33.901Z,64.03
2022-10-25T21:21:02.797Z,63.36
2022-10-25T21:23:29.479Z,63.59
2022-10-25T21:26:04.728Z,63.42
2022-10-25T21:28:33.655Z,63.60
2022-10-25T21:31:05.326Z,63.05
2022-10-25T21:33:31.872Z,62.98
2022-10-25T21:36:13.336Z,62.94
2022-10-25T21:38:40.476Z,63.59
2022-10-25T21:41:09.437Z,63.84
2022-10-25T21:43:37.842Z,64.13
2022-10-25T21:46:05.847Z,65.32
2022-10-25T21:48:33.798Z,65.87
2022-10-25T21:51:00.520Z,65.13
2022-10-25T21:53:27.439Z,63.65
2022-10-25T21:56:14.654Z,63.75
2022-10-25T21:58:42.912Z,63.08
2022-10-25T22:01:12.389Z,63.81
2022-10-25T22:03:40.116Z,65.94
2022-10-25T22:06:08.306Z,70.39
2022-10-25T22:08:35.123Z,69.77
2022-10-25T22:11:07.317Z,71.43
2022-10-25T22:13:34.398Z,75.33
2022-10-25T22:16:07.551Z,76.16
2022-10-25T22:18:34.425Z,80.17
2022-10-25T22:21:06.611Z,79.58
2022-10-25T22:23:33.694Z,81.43
2022-10-25T22:26:05.355Z,84.10
2022-10-25T22:28:34.349Z,85.07
2022-10-25T22:31:23.317Z,85.41
2022-10-25T22:34:09.202Z,87.24
2022-10-25T22:36:38.161Z,85.26
2022-10-25T22:39:06.097Z,84.52
2022-10-25T22:41:32.757Z,84.33
2022-10-25T22:43:59.693Z,85.62
2022-10-25T22:46:31.793Z,87.27
2022-10-25T22:49:00.220Z,89.86
2022-10-25T22:51:28.061Z,90.35
2022-10-25T22:53:55.272Z,91.33
2022-10-25T22:56:26.193Z,91.80
2022-10-25T22:58:57.511Z,93.28
2022-10-25T23:01:26.710Z,92.64
2022-10-25T23:03:57.614Z,89.66
2022-10-25T23:06:27.245Z,91.17
2022-10-25T23:08:55.722Z,92.07
2022-10-25T23:11:28.171Z,91.99
2022-10-25T23:13:54.923Z,92.57
2022-10-25T23:16:21.573Z,92.21
2022-10-25T23:18:48.181Z,90.62
2022-10-25T23:21:20.300Z,92.14
2022-10-25T23:23:47.238Z,91.85
2022-10-25T23:26:19.133Z,89.68
2022-10-25T23:28:45.846Z,90.44
2022-10-25T23:31:13.435Z,92.45
2022-10-25T23:33:41.669Z,92.91
2022-10-25T23:36:12.312Z,93.14
2022-10-25T23:38:38.859Z,93.40
2022-10-25T23:41:05.908Z,91.64
2022-10-25T23:43:32.812Z,87.91
2022-10-25T23:45:59.485Z,86.62
2022-10-25T23:48:26.149Z,84.86
2022-10-25T23:51:04.620Z,86.36
2022-10-25T23:53:31.460Z,84.86
2022-10-25T23:55:58.903Z,85.20
2022-10-25T23:58:28.736Z,86.41
